createdAt,value
2022-07-30T00:01:35.978Z,98817.81
2022-07-30T00:04:02.686Z,98816.38
2022-07-30T00:06:29.173Z,98811.66
2022-07-30T00:08:55.660Z,98823.19
2022-07-30T00:11:27.200Z,98817.22
2022-07-30T00:13:54.188Z,98808.75
2022-07-30T00:16:20.653Z,98805.28
2022-07-30T00:18:47.093Z,98813.03
2022-07-30T00:21:33.872Z,98819.03
2022-07-30T00:24:01.770Z,98801.84
2022-07-30T00:26:28.653Z,98806.97
2022-07-30T00:28:55.035Z,98798.03
2022-07-30T00:31:22.025Z,98802.03
2022-07-30T00:33:48.598Z,98795.50
2022-07-30T00:36:14.995Z,98808.19
2022-07-30T00:38:41.507Z,98783.31
2022-07-30T00:41:07.911Z,98784.81
2022-07-30T00:43:34.320Z,98776.16
2022-07-30T00:46:00.844Z,98764.75
2022-07-30T00:48:27.264Z,98766.53
2022-07-30T00:50:53.659Z,98775.63
2022-07-30T00:53:20.118Z,98751.50
2022-07-30T00:55:46.528Z,98759.38
2022-07-30T00:58:12.936Z,98756.78
2022-07-30T01:00:39.366Z,98752.53
2022-07-30T01:03:05.837Z,98748.69
2022-07-30T01:05:32.329Z,98758.09
2022-07-30T01:07:58.913Z,98750.38
2022-07-30T01:10:25.339Z,98739.09
2022-07-30T01:12:51.807Z,98735.34
2022-07-30T01:15:18.273Z,98731.69
2022-07-30T01:17:44.732Z,98727.44
2022-07-30T01:20:16.264Z,98721.47
2022-07-30T01:22:42.961Z,98730.06
2022-07-30T01:25:09.746Z,98726.72
2022-07-30T01:27:36.441Z,98730.81
2022-07-30T01:30:02.910Z,98733.75
2022-07-30T01:32:29.394Z,98720.78
2022-07-30T01:34:55.799Z,98728.88
2022-07-30T01:37:22.607Z,98730.13
2022-07-30T01:39:49.096Z,98736.84
2022-07-30T01:42:15.503Z,98724.13
2022-07-30T01:44:42.180Z,98734.41
2022-07-30T01:47:08.577Z,98740.22
2022-07-30T01:49:34.955Z,98755.44
2022-07-30T01:52:01.538Z,98743.22
2022-07-30T01:54:27.946Z,98728.28
2022-07-30T01:56:54.314Z,98742.44
2022-07-30T01:59:21.284Z,98741.50
2022-07-30T02:01:47.729Z,98749.19
2022-07-30T02:04:14.416Z,98752.78
2022-07-30T02:06:40.943Z,98748.53
2022-07-30T02:09:11.234Z,98743.09
2022-07-30T02:11:37.956Z,98743.09
2022-07-30T02:14:04.664Z,98745.88
2022-07-30T02:16:31.128Z,98757.94
2022-07-30T02:18:58.541Z,98745.25
2022-07-30T02:21:25.789Z,98754.78
2022-07-30T02:24:03.185Z,98754.47
2022-07-30T02:26:29.611Z,98752.38
2022-07-30T02:28:56.008Z,98743.03
2022-07-30T02:31:22.637Z,98735.63
2022-07-30T02:33:49.602Z,98740.97
2022-07-30T02:36:16.002Z,98743.19
2022-07-30T02:38:42.335Z,98732.41
2022-07-30T02:41:08.978Z,98743.78
2022-07-30T02:43:37.006Z,98747.84
2022-07-30T02:46:03.423Z,98744.19
2022-07-30T02:48:34.952Z,98734.63
2022-07-30T02:51:01.872Z,98746.25
2022-07-30T02:53:30.415Z,98728.59
2022-07-30T02:55:56.980Z,98737.28
2022-07-30T02:58:23.412Z,98734.75
2022-07-30T03:00:49.935Z,98733.81
2022-07-30T03:03:16.367Z,98732.03
2022-07-30T03:05:42.939Z,98741.34
2022-07-30T03:08:09.716Z,98739.22
2022-07-30T03:10:36.137Z,98736.81
2022-07-30T03:13:02.609Z,98732.34
2022-07-30T03:15:29.228Z,98732.41
2022-07-30T03:17:55.823Z,98734.69
2022-07-30T03:20:22.354Z,98744.72
2022-07-30T03:22:49.037Z,98738.59
2022-07-30T03:25:15.401Z,98746.28
2022-07-30T03:27:41.807Z,98745.09
2022-07-30T03:30:08.434Z,98755.94
2022-07-30T03:32:34.876Z,98756.53
2022-07-30T03:35:06.219Z,98755.53
2022-07-30T03:37:33.385Z,98754.53
2022-07-30T03:39:59.772Z,98765.03
2022-07-30T03:42:26.240Z,98766.72
2022-07-30T03:44:52.731Z,98758.38
2022-07-30T03:47:19.121Z,98764.66
2022-07-30T03:49:45.536Z,98766.88
2022-07-30T03:52:12.247Z,98759.75
2022-07-30T03:54:38.787Z,98765.97
2022-07-30T03:57:05.275Z,98775.63
2022-07-30T03:59:31.890Z,98792.38
2022-07-30T04:01:58.331Z,98783.06
2022-07-30T04:04:33.777Z,98777.94
2022-07-30T04:07:00.663Z,98781.66
2022-07-30T04:09:27.467Z,98788.03
2022-07-30T04:11:53.991Z,98779.84
2022-07-30T04:14:20.614Z,98779.59
2022-07-30T04:16:47.069Z,98777.41
2022-07-30T04:19:13.550Z,98769.75
2022-07-30T04:21:40.113Z,98773.25
2022-07-30T04:24:06.750Z,98783.75
2022-07-30T04:26:33.327Z,98780.06
2022-07-30T04:28:59.736Z,98783.06
2022-07-30T04:31:26.185Z,98790.00
2022-07-30T04:33:52.854Z,98790.47
2022-07-30T04:36:19.290Z,98795.16
2022-07-30T04:38:45.766Z,98802.16
2022-07-30T04:41:12.328Z,98800.66
2022-07-30T04:43:38.735Z,98797.09
2022-07-30T04:46:05.135Z,98801.59
2022-07-30T04:48:31.563Z,98804.31
2022-07-30T04:50:57.961Z,98805.66
2022-07-30T04:53:24.383Z,98810.56
2022-07-30T04:55:50.858Z,98802.22
2022-07-30T04:58:17.263Z,98813.22
2022-07-30T05:00:43.673Z,98811.38
2022-07-30T05:03:10.269Z,98812.63
2022-07-30T05:05:36.806Z,98813.03
2022-07-30T05:08:03.260Z,98813.72
2022-07-30T05:10:30.154Z,98818.88
2022-07-30T05:12:56.574Z,98829.16
2022-07-30T05:15:23.128Z,98837.09
2022-07-30T05:18:03.619Z,98832.75
2022-07-30T05:20:30.295Z,98821.75
2022-07-30T05:22:57.685Z,98825.38
2022-07-30T05:25:24.173Z,98821.28
2022-07-30T05:27:50.944Z,98826.59
2022-07-30T05:30:17.346Z,98829.56
2022-07-30T05:32:44.160Z,98817.56
2022-07-30T05:35:12.906Z,98835.22
2022-07-30T05:37:39.300Z,98845.78
2022-07-30T05:40:05.994Z,98842.31
2022-07-30T05:42:32.604Z,98849.91
2022-07-30T05:44:59.012Z,98858.00
2022-07-30T05:47:25.518Z,98855.84
2022-07-30T05:49:51.954Z,98861.16
2022-07-30T05:52:18.324Z,98869.03
2022-07-30T05:54:44.767Z,98874.31
2022-07-30T05:57:11.172Z,98871.19
2022-07-30T05:59:37.573Z,98877.22
2022-07-30T06:02:04.403Z,98887.25
2022-07-30T06:04:31.362Z,98881.44
2022-07-30T06:06:57.998Z,98883.41
2022-07-30T06:09:36.489Z,98878.88
2022-07-30T06:12:03.773Z,98884.25
2022-07-30T06:14:30.392Z,98883.34
2022-07-30T06:16:56.820Z,98886.47
2022-07-30T06:19:23.237Z,98889.22
2022-07-30T06:22:06.262Z,98880.97
2022-07-30T06:24:33.518Z,98881.97
2022-07-30T06:27:00.403Z,98881.56
2022-07-30T06:29:27.206Z,98876.53
2022-07-30T06:31:53.623Z,98877.31
2022-07-30T06:34:20.185Z,98875.03
2022-07-30T06:36:46.571Z,98881.44
2022-07-30T06:39:12.953Z,98871.44
2022-07-30T06:41:39.420Z,98871.44
2022-07-30T06:44:05.843Z,98880.25
2022-07-30T06:46:32.286Z,98869.88
2022-07-30T06:48:58.975Z,98865.22
2022-07-30T06:51:26.479Z,98874.38
2022-07-30T06:53:52.897Z,98875.38
2022-07-30T06:56:19.427Z,98870.97
2022-07-30T06:58:45.871Z,98870.72
2022-07-30T07:01:12.363Z,98870.97
2022-07-30T07:03:39.563Z,98867.78
2022-07-30T07:06:06.942Z,98878.34
2022-07-30T07:08:33.314Z,98887.78
2022-07-30T07:10:59.986Z,98873.09
2022-07-30T07:13:26.385Z,98878.06
2022-07-30T07:15:52.803Z,98876.00
2022-07-30T07:18:19.238Z,98864.91
2022-07-30T07:20:45.609Z,98879.94
2022-07-30T07:23:12.638Z,98873.81
2022-07-30T07:25:40.455Z,98872.84
2022-07-30T07:28:12.720Z,98866.66
2022-07-30T07:30:40.131Z,98871.81
2022-07-30T07:33:06.536Z,98868.63
2022-07-30T07:35:32.931Z,98867.50
2022-07-30T07:38:15.755Z,98873.69
2022-07-30T07:40:42.176Z,98871.94
2022-07-30T07:43:08.586Z,98861.53
2022-07-30T07:45:35.084Z,98862.84
2022-07-30T07:48:01.518Z,98874.41
2022-07-30T07:50:27.945Z,98870.56
2022-07-30T07:52:54.589Z,98866.75
2022-07-30T07:55:22.388Z,98872.94
2022-07-30T07:57:48.795Z,98868.34
2022-07-30T08:00:16.049Z,98875.06
2022-07-30T08:02:42.590Z,98869.00
2022-07-30T08:05:09.141Z,98866.69
2022-07-30T08:07:35.719Z,98865.38
2022-07-30T08:10:02.112Z,98857.13
2022-07-30T08:12:28.509Z,98862.19
2022-07-30T08:14:55.014Z,98859.13
2022-07-30T08:17:21.501Z,98855.34
2022-07-30T08:19:47.963Z,98854.84
2022-07-30T08:22:14.579Z,98855.44
2022-07-30T08:24:40.975Z,98857.00
2022-07-30T08:27:07.397Z,98858.72
2022-07-30T08:29:34.040Z,98851.38
2022-07-30T08:32:00.728Z,98850.34
2022-07-30T08:34:27.319Z,98858.88
2022-07-30T08:36:53.765Z,98859.06
2022-07-30T08:39:20.270Z,98862.00
2022-07-30T08:41:46.634Z,98861.75
2022-07-30T08:44:13.143Z,98861.97
2022-07-30T08:46:39.633Z,98857.00
2022-07-30T08:49:10.993Z,98862.34
2022-07-30T08:51:38.122Z,98858.47
2022-07-30T08:54:04.511Z,98865.38
2022-07-30T08:56:30.912Z,98858.41
2022-07-30T08:58:57.358Z,98851.50
2022-07-30T09:01:23.771Z,98857.09
2022-07-30T09:03:50.205Z,98849.75
2022-07-30T09:06:16.731Z,98859.75
2022-07-30T09:08:43.170Z,98840.69
2022-07-30T09:11:09.584Z,98845.38
2022-07-30T09:13:35.996Z,98851.56
2022-07-30T09:16:02.474Z,98845.63
2022-07-30T09:18:28.896Z,98836.16
2022-07-30T09:20:55.443Z,98840.78
2022-07-30T09:23:21.857Z,98843.72
2022-07-30T09:25:48.315Z,98847.94
2022-07-30T09:28:16.655Z,98841.13
2022-07-30T09:30:43.441Z,98833.25
2022-07-30T09:33:09.820Z,98841.97
2022-07-30T09:35:36.572Z,98828.28
2022-07-30T09:38:06.322Z,98829.34
2022-07-30T09:40:33.107Z,98840.25
2022-07-30T09:42:59.613Z,98843.50
2022-07-30T09:45:26.383Z,98832.31
2022-07-30T09:48:01.479Z,98839.50
2022-07-30T09:50:30.228Z,98830.72
2022-07-30T09:52:57.149Z,98838.47
2022-07-30T09:55:23.766Z,98836.25
2022-07-30T09:57:54.056Z,98829.91
2022-07-30T10:00:24.346Z,98835.09
2022-07-30T10:02:51.031Z,98833.69
2022-07-30T10:05:19.019Z,98829.44
2022-07-30T10:07:46.799Z,98832.59
2022-07-30T10:10:14.756Z,98828.91
2022-07-30T10:12:43.928Z,98833.53
2022-07-30T10:15:13.558Z,98831.44
2022-07-30T10:17:40.195Z,98818.75
2022-07-30T10:20:10.559Z,98825.84
2022-07-30T10:22:39.373Z,98809.41
2022-07-30T10:25:06.023Z,98813.69
2022-07-30T10:27:33.268Z,98812.91
2022-07-30T10:30:04.424Z,98807.41
2022-07-30T10:32:33.255Z,98810.41
2022-07-30T10:34:59.929Z,98813.66
2022-07-30T10:37:28.429Z,98816.06
2022-07-30T10:39:54.996Z,98813.00
2022-07-30T10:42:21.448Z,98815.75
2022-07-30T10:44:47.983Z,98814.09
2022-07-30T10:47:15.341Z,98818.75
2022-07-30T10:49:43.267Z,98817.59
2022-07-30T10:52:10.080Z,98813.19
2022-07-30T10:54:39.327Z,98814.41
2022-07-30T10:57:06.405Z,98816.44
2022-07-30T10:59:33.700Z,98815.84
2022-07-30T11:02:03.512Z,98812.94
2022-07-30T11:04:31.300Z,98817.00
2022-07-30T11:06:57.845Z,98821.03
2022-07-30T11:09:26.012Z,98810.31
2022-07-30T11:12:04.922Z,98821.88
2022-07-30T11:14:33.147Z,98815.66
2022-07-30T11:16:59.843Z,98819.03
2022-07-30T11:19:53.390Z,98814.47
2022-07-30T11:22:13.035Z,98808.44
2022-07-30T11:24:39.557Z,98811.25
2022-07-30T11:27:06.159Z,98797.56
2022-07-30T11:29:35.303Z,98792.22
2022-07-30T11:32:17.578Z,98805.75
2022-07-30T11:34:50.449Z,98800.97
2022-07-30T11:37:21.816Z,98812.84
2022-07-30T11:39:49.158Z,98798.00
2022-07-30T11:42:16.837Z,98787.59
2022-07-30T11:44:43.264Z,98800.53
2022-07-30T11:47:10.259Z,98800.47
2022-07-30T11:49:36.711Z,98793.88
2022-07-30T11:52:03.564Z,98799.13
2022-07-30T11:54:30.775Z,98792.44
2022-07-30T11:56:59.669Z,98785.28
2022-07-30T11:59:30.275Z,98799.88
2022-07-30T12:01:56.747Z,98784.72
2022-07-30T12:04:23.119Z,98778.75
2022-07-30T12:06:49.498Z,98781.31
2022-07-30T12:09:15.983Z,98783.00
2022-07-30T12:11:43.754Z,98791.16
2022-07-30T12:14:10.410Z,98781.97
2022-07-30T12:16:36.864Z,98784.00
2022-07-30T12:19:03.268Z,98778.81
2022-07-30T12:21:29.733Z,98786.13
2022-07-30T12:23:56.709Z,98785.03
2022-07-30T12:26:23.185Z,98773.06
2022-07-30T12:28:50.795Z,98772.81
2022-07-30T12:31:17.614Z,98764.66
2022-07-30T12:33:44.034Z,98770.03
2022-07-30T12:36:10.637Z,98762.31
2022-07-30T12:38:37.139Z,98769.38
2022-07-30T12:41:03.605Z,98758.03
2022-07-30T12:43:30.342Z,98765.00
2022-07-30T12:45:56.898Z,98756.63
2022-07-30T12:48:23.321Z,98751.94
2022-07-30T12:50:49.940Z,98742.22
2022-07-30T12:53:16.564Z,98745.56
2022-07-30T12:55:42.996Z,98744.88
2022-07-30T12:58:09.461Z,98756.13
2022-07-30T13:00:35.917Z,98748.56
2022-07-30T13:03:02.315Z,98739.53
2022-07-30T13:05:28.844Z,98744.59
2022-07-30T13:07:55.553Z,98741.53
2022-07-30T13:10:22.786Z,98740.84
2022-07-30T13:12:50.786Z,98733.47
2022-07-30T13:15:17.703Z,98738.66
2022-07-30T13:17:44.127Z,98744.38
2022-07-30T13:20:10.525Z,98738.19
2022-07-30T13:22:37.000Z,98743.25
2022-07-30T13:25:03.382Z,98745.25
2022-07-30T13:27:29.837Z,98723.41
2022-07-30T13:29:57.251Z,98722.09
2022-07-30T13:32:23.675Z,98729.16
2022-07-30T13:34:50.112Z,98732.31
2022-07-30T13:37:16.677Z,98720.59
2022-07-30T13:39:43.166Z,98716.06
2022-07-30T13:42:09.873Z,98715.75
2022-07-30T13:44:36.454Z,98711.69
2022-07-30T13:47:03.578Z,98704.81
2022-07-30T13:49:30.375Z,98709.66
2022-07-30T13:51:57.032Z,98702.91
2022-07-30T13:54:23.408Z,98703.25
2022-07-30T13:56:49.933Z,98695.94
2022-07-30T13:59:16.947Z,98700.97
2022-07-30T14:01:43.507Z,98695.88
2022-07-30T14:04:09.903Z,98694.53
2022-07-30T14:06:36.362Z,98686.13
2022-07-30T14:09:03.193Z,98692.44
2022-07-30T14:11:29.555Z,98670.38
2022-07-30T14:13:56.808Z,98667.38
2022-07-30T14:16:44.276Z,98675.25
2022-07-30T14:19:09.623Z,98680.41
2022-07-30T14:21:49.650Z,98678.41
2022-07-30T14:24:16.256Z,98676.59
2022-07-30T14:26:42.583Z,98690.25
2022-07-30T14:29:08.985Z,98687.00
2022-07-30T14:31:40.598Z,98698.38
2022-07-30T14:34:07.021Z,98703.78
2022-07-30T14:36:33.384Z,98684.97
2022-07-30T14:39:00.154Z,98695.19
2022-07-30T14:41:26.540Z,98695.13
2022-07-30T14:43:52.917Z,98695.53
2022-07-30T14:46:19.830Z,98691.81
2022-07-30T14:48:46.172Z,98682.72
2022-07-30T14:51:17.922Z,98685.34
2022-07-30T14:53:47.071Z,98676.22
2022-07-30T14:56:13.853Z,98686.84
2022-07-30T14:58:40.670Z,98685.69
2022-07-30T15:01:16.508Z,98681.72
2022-07-30T15:03:43.330Z,98671.66
2022-07-30T15:06:09.741Z,98677.75
2022-07-30T15:08:36.356Z,98685.41
2022-07-30T15:11:04.692Z,98687.00
2022-07-30T15:13:34.378Z,98679.75
2022-07-30T15:16:02.739Z,98682.00
2022-07-30T15:18:29.159Z,98699.56
2022-07-30T15:20:56.185Z,98687.66
2022-07-30T15:23:22.630Z,98684.72
2022-07-30T15:25:49.027Z,98687.13
2022-07-30T15:28:15.429Z,98685.16
2022-07-30T15:30:41.868Z,98692.25
2022-07-30T15:33:08.283Z,98687.41
2022-07-30T15:35:35.050Z,98686.34
2022-07-30T15:38:01.580Z,98689.91
2022-07-30T15:40:28.009Z,98694.53
2022-07-30T15:42:54.411Z,98698.00
2022-07-30T15:45:20.888Z,98691.06
2022-07-30T15:47:47.280Z,98697.94
2022-07-30T15:50:13.707Z,98696.03
2022-07-30T15:52:40.188Z,98694.84
2022-07-30T15:55:06.549Z,98687.63
2022-07-30T15:57:33.049Z,98681.75
2022-07-30T15:59:59.550Z,98690.47
2022-07-30T16:02:25.966Z,98691.22
2022-07-30T16:04:52.763Z,98688.91
2022-07-30T16:07:19.377Z,98691.19
2022-07-30T16:09:45.792Z,98689.84
2022-07-30T16:12:12.261Z,98693.38
2022-07-30T16:14:38.805Z,98697.44
2022-07-30T16:17:05.181Z,98695.72
2022-07-30T16:19:31.558Z,98702.50
2022-07-30T16:21:57.957Z,98687.06
2022-07-30T16:24:24.344Z,98725.09
2022-07-30T16:26:50.771Z,98739.38
2022-07-30T16:29:17.279Z,98764.00
2022-07-30T16:31:43.691Z,98770.63
2022-07-30T16:34:10.167Z,98779.84
2022-07-30T16:36:36.810Z,98785.22
2022-07-30T16:39:03.213Z,98784.69
2022-07-30T16:41:29.647Z,98795.00
2022-07-30T16:43:56.173Z,98785.72
2022-07-30T16:46:22.593Z,98784.06
2022-07-30T16:48:50.535Z,98773.88
2022-07-30T16:51:17.718Z,98768.53
2022-07-30T16:53:44.159Z,98770.72
2022-07-30T16:56:10.551Z,98771.56
2022-07-30T16:58:37.036Z,98769.03
2022-07-30T17:01:03.488Z,98775.56
2022-07-30T17:03:29.953Z,98772.41
2022-07-30T17:05:56.577Z,98776.78
2022-07-30T17:08:24.641Z,98782.81
2022-07-30T17:10:51.605Z,98782.84
2022-07-30T17:13:18.221Z,98783.13
2022-07-30T17:15:46.713Z,98780.78
2022-07-30T17:18:13.411Z,98783.47
2022-07-30T17:20:39.858Z,98769.53
2022-07-30T17:23:06.275Z,98778.09
2022-07-30T17:25:32.708Z,98776.59
2022-07-30T17:27:59.591Z,98783.38
2022-07-30T17:30:25.961Z,98781.16
2022-07-30T17:32:52.614Z,98784.97
2022-07-30T17:35:19.034Z,98790.81
2022-07-30T17:37:45.461Z,98790.50
2022-07-30T17:40:29.027Z,98791.16
2022-07-30T17:42:57.546Z,98792.81
2022-07-30T17:45:23.909Z,98784.00
2022-07-30T17:47:50.289Z,98785.78
2022-07-30T17:50:16.732Z,98800.41
2022-07-30T17:52:43.205Z,98790.84
2022-07-30T17:55:09.815Z,98794.56
2022-07-30T17:57:36.976Z,98802.56
2022-07-30T18:00:04.333Z,98804.44
2022-07-30T18:02:30.753Z,98809.81
2022-07-30T18:04:57.239Z,98818.66
2022-07-30T18:07:23.712Z,98820.16
2022-07-30T18:09:50.105Z,98814.69
2022-07-30T18:12:16.643Z,98822.72
2022-07-30T18:14:43.027Z,98830.44
2022-07-30T18:17:14.074Z,98831.13
2022-07-30T18:19:41.127Z,98820.00
2022-07-30T18:22:07.572Z,98833.50
2022-07-30T18:24:34.008Z,98841.44
2022-07-30T18:27:07.112Z,98831.75
2022-07-30T18:29:33.534Z,98842.81
2022-07-30T18:32:00.301Z,98834.75
2022-07-30T18:34:27.000Z,98827.09
2022-07-30T18:36:53.422Z,98831.25
2022-07-30T18:39:19.832Z,98828.38
2022-07-30T18:41:46.272Z,98830.41
2022-07-30T18:44:12.736Z,98828.75
2022-07-30T18:46:39.113Z,98809.75
2022-07-30T18:49:21.164Z,98809.50
2022-07-30T18:51:52.006Z,98814.72
2022-07-30T18:54:18.715Z,98811.22
2022-07-30T18:56:45.189Z,98819.97
2022-07-30T18:59:11.623Z,98814.41
2022-07-30T19:01:38.176Z,98814.38
2022-07-30T19:04:05.411Z,98826.41
2022-07-30T19:06:31.833Z,98828.06
2022-07-30T19:08:58.277Z,98830.41
2022-07-30T19:11:24.690Z,98836.91
2022-07-30T19:13:51.097Z,98829.06
2022-07-30T19:16:17.663Z,98838.31
2022-07-30T19:18:44.084Z,98844.22
2022-07-30T19:21:14.021Z,98840.16
2022-07-30T19:23:40.921Z,98847.28
2022-07-30T19:26:07.292Z,98852.03
2022-07-30T19:28:33.734Z,98855.72
2022-07-30T19:31:00.893Z,98869.88
2022-07-30T19:33:27.284Z,98863.13
2022-07-30T19:35:53.698Z,98876.94
2022-07-30T19:38:21.620Z,98871.94
2022-07-30T19:40:48.638Z,98869.72
2022-07-30T19:43:15.723Z,98870.72
2022-07-30T19:45:47.158Z,98867.84
2022-07-30T19:48:14.598Z,98871.44
2022-07-30T19:50:41.056Z,98875.63
2022-07-30T19:53:07.752Z,98863.41
2022-07-30T19:55:35.715Z,98859.81
2022-07-30T19:58:02.391Z,98856.66
2022-07-30T20:00:30.170Z,98846.59
2022-07-30T20:02:56.880Z,98847.34
2022-07-30T20:05:24.793Z,98841.97
2022-07-30T20:07:52.068Z,98847.06
2022-07-30T20:10:18.523Z,98853.53
2022-07-30T20:12:49.013Z,98858.25
2022-07-30T20:15:16.320Z,98848.22
2022-07-30T20:17:42.731Z,98852.13
2022-07-30T20:20:09.390Z,98860.44
2022-07-30T20:22:35.923Z,98853.06
2022-07-30T20:25:02.275Z,98849.63
2022-07-30T20:27:35.882Z,98847.97
2022-07-30T20:30:03.357Z,98849.47
2022-07-30T20:32:29.765Z,98851.16
2022-07-30T20:34:56.272Z,98847.19
2022-07-30T20:37:22.847Z,98848.81
2022-07-30T20:39:49.311Z,98840.94
2022-07-30T20:42:16.291Z,98837.63
2022-07-30T20:44:43.172Z,98834.97
2022-07-30T20:47:09.773Z,98835.97
2022-07-30T20:49:36.172Z,98839.91
2022-07-30T20:52:02.847Z,98841.75
2022-07-30T20:54:29.334Z,98830.38
2022-07-30T20:56:56.127Z,98845.19
2022-07-30T20:59:23.696Z,98839.06
2022-07-30T21:01:50.458Z,98846.09
2022-07-30T21:04:25.411Z,98840.78
2022-07-30T21:07:04.237Z,98847.38
2022-07-30T21:09:49.713Z,98855.06
2022-07-30T21:12:17.525Z,98854.66
2022-07-30T21:14:43.932Z,98848.47
2022-07-30T21:17:14.940Z,98856.03
2022-07-30T21:19:44.502Z,98876.63
2022-07-30T21:22:11.100Z,98870.84
2022-07-30T21:24:37.487Z,98859.41
2022-07-30T21:27:04.783Z,98861.56
2022-07-30T21:29:31.207Z,98860.69
2022-07-30T21:32:00.522Z,98868.75
2022-07-30T21:34:35.501Z,98875.91
2022-07-30T21:37:06.543Z,98861.72
2022-07-30T21:39:39.747Z,98879.09
2022-07-30T21:42:06.626Z,98877.31
2022-07-30T21:44:33.051Z,98884.16
2022-07-30T21:47:00.411Z,98877.00
2022-07-30T21:49:27.802Z,98881.22
2022-07-30T21:51:58.167Z,98896.50
2022-07-30T21:54:29.021Z,98873.97
2022-07-30T21:56:58.153Z,98890.84
2022-07-30T21:59:24.839Z,98886.13
2022-07-30T22:01:55.181Z,98882.09
2022-07-30T22:04:21.688Z,98885.88
2022-07-30T22:06:48.090Z,98889.81
2022-07-30T22:09:18.995Z,98885.59
2022-07-30T22:11:53.192Z,98896.50
2022-07-30T22:14:19.620Z,98901.88
2022-07-30T22:16:46.813Z,98898.47
2022-07-30T22:19:14.298Z,98904.66
2022-07-30T22:21:41.176Z,98894.84
2022-07-30T22:24:07.570Z,98890.66
2022-07-30T22:26:33.919Z,98885.69
2022-07-30T22:29:00.511Z,98891.03
2022-07-30T22:31:26.912Z,98878.28
2022-07-30T22:34:11.518Z,98895.97
2022-07-30T22:36:45.545Z,98903.25
2022-07-30T22:39:12.252Z,98891.38
2022-07-30T22:41:38.671Z,98888.91
2022-07-30T22:44:06.545Z,98895.22
2022-07-30T22:46:39.024Z,98903.00
2022-07-30T22:49:24.805Z,98907.31
2022-07-30T22:52:01.520Z,98903.25
2022-07-30T22:54:33.166Z,98915.44
2022-07-30T22:57:03.863Z,98929.06
2022-07-30T23:00:00.205Z,98915.81
2022-07-30T23:02:17.985Z,98924.44
2022-07-30T23:04:44.454Z,98923.25
2022-07-30T23:07:10.928Z,98918.19
2022-07-30T23:09:49.394Z,98920.44
2022-07-30T23:12:20.223Z,98910.59
2022-07-30T23:14:46.867Z,98902.34
2022-07-30T23:17:13.234Z,98905.25
2022-07-30T23:19:39.629Z,98896.47
2022-07-30T23:22:06.086Z,98906.97
2022-07-30T23:24:32.475Z,98912.19
2022-07-30T23:26:58.927Z,98915.25
2022-07-30T23:29:25.687Z,98915.03
2022-07-30T23:31:52.169Z,98927.53
2022-07-30T23:34:18.633Z,98921.16
2022-07-30T23:36:45.147Z,98907.78
2022-07-30T23:39:11.548Z,98908.50
2022-07-30T23:41:38.084Z,98918.13
2022-07-30T23:44:04.564Z,98921.97
2022-07-30T23:46:30.936Z,98911.53
2022-07-30T23:48:57.396Z,98906.84
2022-07-30T23:51:23.836Z,98919.00
2022-07-30T23:53:50.204Z,98922.28
2022-07-30T23:56:19.677Z,98912.47
2022-07-30T23:58:46.166Z,98925.56
